Погода Варциминона неделю

Поморское воеводство, Польша

19 - 25 июля
  • 19июля
    Сегодня
    +11°
    +23°
    Практически безоблачно
    ВремяПогодаТемператураВлажностьДавлениеВетер, м/сВероятность осадков
    02:00Ясно и безоблачно+14°C95 %764 мм1.8 м/с2 %
    05:00Ясно и безоблачно+13°C95 %764 мм1.6 м/с2 %
    08:00Небольшая облачность+17°C85 %764 мм2.3 м/с2 %
    11:00Небольшая облачность+21°C66 %764 мм3.5 м/с9 %
    14:00Практически безоблачно+22°C60 %763 мм4.0 м/с2 %
    17:00Ясно и безоблачно+22°C62 %762 мм4.3 м/с2 %
    20:00Ясно и безоблачно+19°C76 %761 мм2.3 м/с2 %
    23:00Ясно и безоблачно+15°C93 %761 мм0.6 м/с2 %
  • 20июля
    Суббота
    +13°
    +25°
    Облачно с прояснениями
    ВремяПогодаТемператураВлажностьДавлениеВетер, м/сВероятность осадков
    02:00Ясно и безоблачно+13°C94 %760 мм1.1 м/с2 %
    05:00Ясно и безоблачно+11°C94 %760 мм0.8 м/с2 %
    08:00Ясно и безоблачно+18°C84 %759 мм0.8 м/с2 %
    11:00Небольшая облачность+23°C69 %759 мм1.9 м/с2 %
    14:00Облачно с прояснениями+24°C60 %758 мм2.6 м/с2 %
    17:00Ясно и безоблачно+23°C68 %757 мм3.6 м/с2 %
    20:00Ясно и безоблачно+21°C78 %757 мм2.1 м/с2 %
    23:00Ясно и безоблачно+17°C95 %756 мм0.9 м/с2 %
  • 21июля
    Воскресенье
    +16°
    +27°
    Облачно с прояснениями
    ВремяПогодаТемператураВлажностьДавлениеВетер, м/сВероятность осадков
    02:00Ясно и безоблачно+15°C97 %756 мм1.1 м/с2 %
    05:00Небольшая облачность+13°C98 %756 мм1.0 м/с2 %
    08:00Практически безоблачно+19°C89 %756 мм0.9 м/с2 %
    11:00Ясно и безоблачно+24°C63 %755 мм2.0 м/с2 %
    14:00Облачно с прояснениями+26°C49 %755 мм2.1 м/с3 %
    17:00Практически безоблачно+25°C58 %755 мм3.7 м/с6 %
    20:00Ясно и безоблачно+22°C68 %755 мм3.2 м/с2 %
    23:00Облачно с прояснениями+18°C85 %755 мм1.9 м/с2 %
  • 22июля
    Понедельник
    +15°
    +28°
    Облачно с прояснениями
    ВремяПогодаТемператураВлажностьДавлениеВетер, м/сВероятность осадков
    02:00Ясно и безоблачно+17°C93 %755 мм2.0 м/с2 %
    05:00Ясно и безоблачно+16°C93 %755 мм1.6 м/с2 %
    08:00Практически безоблачно+21°C80 %755 мм1.7 м/с2 %
    11:00Облачно с прояснениями+26°C59 %755 мм2.5 м/с13 %
    14:00Облачно с прояснениями+28°C48 %755 мм2.4 м/с40 %
    17:00Пасмурно, небольшой дождь+22°C68 %755 мм3.8 м/с58 %
    20:00Пасмурно, ливень+19°C91 %756 мм2.6 м/с48 %
    23:00Пасмурно, ливень+18°C97 %757 мм1.6 м/с33 %
  • 23июля
    Вторник
    +12°
    +21°
    Ясно и безоблачно
    ВремяПогодаТемператураВлажностьДавлениеВетер, м/сВероятность осадков
    02:00Небольшая облачность+17°C93 %758 мм2.3 м/с32 %
    05:00Практически безоблачно+16°C95 %758 мм1.5 м/с43 %
    08:00Практически безоблачно+18°C83 %759 мм2.2 м/с32 %
    11:00Практически безоблачно+20°C68 %759 мм3.4 м/с39 %
    14:00Ясно и безоблачно+20°C59 %759 мм3.6 м/с49 %
    17:00Ясно и безоблачно+20°C58 %759 мм3.4 м/с43 %
    20:00Ясно и безоблачно+19°C73 %759 мм1.7 м/с26 %
    23:00Ясно и безоблачно+15°C87 %759 мм0.3 м/с17 %
Мы используем cookies
Соглашаюсь